sensor_id;sensor_type;location;lat;lon;timestamp;pressure;altitude;pressure_sealevel;temperature
69435;BMP180;56625;54.322;18.582;2023-04-01T00:01:14;99037.40;;;5.00
69435;BMP180;56625;54.322;18.582;2023-04-01T00:03:42;99047.80;;;4.90
69435;BMP180;56625;54.322;18.582;2023-04-01T00:06:17;99037.20;;;4.76
69435;BMP180;56625;54.322;18.582;2023-04-01T00:08:45;99037.80;;;4.70
69435;BMP180;56625;54.322;18.582;2023-04-01T00:11:15;99031.40;;;4.60
69435;BMP180;56625;54.322;18.582;2023-04-01T00:13:44;99040.40;;;4.50
69435;BMP180;56625;54.322;18.582;2023-04-01T00:16:12;99039.20;;;4.50
69435;BMP180;56625;54.322;18.582;2023-04-01T00:18:51;99043.20;;;4.50
69435;BMP180;56625;54.322;18.582;2023-04-01T00:21:20;99043.20;;;4.50
69435;BMP180;56625;54.322;18.582;2023-04-01T00:23:50;99041.00;;;4.60
69435;BMP180;56625;54.322;18.582;2023-04-01T00:26:19;99049.00;;;4.60
69435;BMP180;56625;54.322;18.582;2023-04-01T00:28:50;99042.20;;;4.60
69435;BMP180;56625;54.322;18.582;2023-04-01T00:31:19;99048.80;;;4.60
69435;BMP180;56625;54.322;18.582;2023-04-01T00:33:48;99045.60;;;4.60
69435;BMP180;56625;54.322;18.582;2023-04-01T00:36:20;99041.80;;;4.60
69435;BMP180;56625;54.322;18.582;2023-04-01T00:38:51;99051.20;;;4.60
69435;BMP180;56625;54.322;18.582;2023-04-01T00:41:20;99054.20;;;4.60
69435;BMP180;56625;54.322;18.582;2023-04-01T00:43:50;99058.80;;;4.52
69435;BMP180;56625;54.322;18.582;2023-04-01T00:46:19;99057.60;;;4.50
69435;BMP180;56625;54.322;18.582;2023-04-01T00:48:51;99054.40;;;4.50
69435;BMP180;56625;54.322;18.582;2023-04-01T00:51:25;99049.20;;;4.50
69435;BMP180;56625;54.322;18.582;2023-04-01T00:53:58;99053.40;;;4.50
69435;BMP180;56625;54.322;18.582;2023-04-01T00:56:36;99042.20;;;4.46
69435;BMP180;56625;54.322;18.582;2023-04-01T00:59:21;99045.60;;;4.40
69435;BMP180;56625;54.322;18.582;2023-04-01T01:01:50;99040.00;;;4.40
69435;BMP180;56625;54.322;18.582;2023-04-01T01:04:31;99037.80;;;4.40
69435;BMP180;56625;54.322;18.582;2023-04-01T01:07:16;99035.60;;;4.40
69435;BMP180;56625;54.322;18.582;2023-04-01T01:14:01;99038.00;;;4.40
69435;BMP180;56625;54.322;18.582;2023-04-01T01:16:38;99038.60;;;4.50
69435;BMP180;56625;54.322;18.582;2023-04-01T01:19:26;99037.20;;;4.50
69435;BMP180;56625;54.322;18.582;2023-04-01T01:25:15;99044.20;;;4.60
69435;BMP180;56625;54.322;18.582;2023-04-01T01:28:02;99045.40;;;4.70
69435;BMP180;56625;54.322;18.582;2023-04-01T01:30:48;99055.80;;;4.70
69435;BMP180;56625;54.322;18.582;2023-04-01T01:33:36;99055.60;;;4.70
69435;BMP180;56625;54.322;18.582;2023-04-01T01:36:12;99060.80;;;4.80
69435;BMP180;56625;54.322;18.582;2023-04-01T01:38:41;99052.00;;;4.80
69435;BMP180;56625;54.322;18.582;2023-04-01T01:41:12;99060.40;;;4.80
69435;BMP180;56625;54.322;18.582;2023-04-01T01:43:46;99057.60;;;4.80
69435;BMP180;56625;54.322;18.582;2023-04-01T01:46:21;99062.20;;;4.82
69435;BMP180;56625;54.322;18.582;2023-04-01T01:48:52;99059.40;;;4.84
69435;BMP180;56625;54.322;18.582;2023-04-01T01:51:22;99066.40;;;4.90
69435;BMP180;56625;54.322;18.582;2023-04-01T01:53:50;99060.20;;;4.90
69435;BMP180;56625;54.322;18.582;2023-04-01T01:56:22;99060.00;;;4.90
69435;BMP180;56625;54.322;18.582;2023-04-01T01:58:56;99056.80;;;4.84
69435;BMP180;56625;54.322;18.582;2023-04-01T02:01:31;99057.00;;;4.80
69435;BMP180;56625;54.322;18.582;2023-04-01T02:04:02;99062.20;;;4.80
69435;BMP180;56625;54.322;18.582;2023-04-01T02:06:37;99058.00;;;4.72
69435;BMP180;56625;54.322;18.582;2023-04-01T02:09:08;99061.80;;;4.70
69435;BMP180;56625;54.322;18.582;2023-04-01T02:11:59;99056.80;;;4.70
69435;BMP180;56625;54.322;18.582;2023-04-01T02:17:22;99064.00;;;4.72
69435;BMP180;56625;54.322;18.582;2023-04-01T02:19:57;99068.40;;;4.70
69435;BMP180;56625;54.322;18.582;2023-04-01T02:22:37;99065.20;;;4.70
69435;BMP180;56625;54.322;18.582;2023-04-01T02:25:17;99063.40;;;4.68
69435;BMP180;56625;54.322;18.582;2023-04-01T02:27:46;99067.00;;;4.60
69435;BMP180;56625;54.322;18.582;2023-04-01T02:30:16;99061.80;;;4.60
69435;BMP180;56625;54.322;18.582;2023-04-01T02:32:46;99063.80;;;4.60
69435;BMP180;56625;54.322;18.582;2023-04-01T02:35:17;99063.60;;;4.60
69435;BMP180;56625;54.322;18.582;2023-04-01T02:37:49;99065.20;;;4.60
69435;BMP180;56625;54.322;18.582;2023-04-01T02:40:18;99069.80;;;4.62
69435;BMP180;56625;54.322;18.582;2023-04-01T02:42:46;99073.20;;;4.70
69435;BMP180;56625;54.322;18.582;2023-04-01T02:45:14;99074.20;;;4.70
69435;BMP180;56625;54.322;18.582;2023-04-01T02:47:42;99077.00;;;4.70
69435;BMP180;56625;54.322;18.582;2023-04-01T02:50:10;99075.20;;;4.70
69435;BMP180;56625;54.322;18.582;2023-04-01T02:52:38;99081.60;;;4.70
69435;BMP180;56625;54.322;18.582;2023-04-01T02:55:06;99080.00;;;4.70
69435;BMP180;56625;54.322;18.582;2023-04-01T02:57:34;99083.80;;;4.80
69435;BMP180;56625;54.322;18.582;2023-04-01T03:00:03;99083.40;;;4.80
69435;BMP180;56625;54.322;18.582;2023-04-01T03:02:31;99083.60;;;4.82
69435;BMP180;56625;54.322;18.582;2023-04-01T03:04:59;99090.60;;;4.80
69435;BMP180;56625;54.322;18.582;2023-04-01T03:07:27;99092.20;;;4.82
69435;BMP180;56625;54.322;18.582;2023-04-01T03:09:55;99092.00;;;4.80
69435;BMP180;56625;54.322;18.582;2023-04-01T03:12:22;99091.00;;;4.80
69435;BMP180;56625;54.322;18.582;2023-04-01T03:14:50;99087.40;;;4.88
69435;BMP180;56625;54.322;18.582;2023-04-01T03:17:18;99094.60;;;4.90
69435;BMP180;56625;54.322;18.582;2023-04-01T03:19:46;99092.80;;;4.90
69435;BMP180;56625;54.322;18.582;2023-04-01T03:22:14;99096.40;;;4.90
69435;BMP180;56625;54.322;18.582;2023-04-01T03:24:42;99099.20;;;4.90
69435;BMP180;56625;54.322;18.582;2023-04-01T03:27:10;99094.60;;;4.90
69435;BMP180;56625;54.322;18.582;2023-04-01T03:29:37;99096.80;;;4.90
69435;BMP180;56625;54.322;18.582;2023-04-01T03:32:05;99099.80;;;4.90
69435;BMP180;56625;54.322;18.582;2023-04-01T03:34:36;99106.20;;;4.90
69435;BMP180;56625;54.322;18.582;2023-04-01T03:37:04;99106.00;;;4.92
69435;BMP180;56625;54.322;18.582;2023-04-01T03:39:31;99108.00;;;5.00
69435;BMP180;56625;54.322;18.582;2023-04-01T03:41:59;99101.40;;;5.00
69435;BMP180;56625;54.322;18.582;2023-04-01T03:44:42;99112.00;;;4.90
69435;BMP180;56625;54.322;18.582;2023-04-01T03:47:10;99104.80;;;4.90
69435;BMP180;56625;54.322;18.582;2023-04-01T03:49:38;99106.40;;;4.90
69435;BMP180;56625;54.322;18.582;2023-04-01T03:52:10;99110.80;;;4.90
69435;BMP180;56625;54.322;18.582;2023-04-01T03:54:38;99105.20;;;4.90
69435;BMP180;56625;54.322;18.582;2023-04-01T03:57:06;99116.00;;;4.90
69435;BMP180;56625;54.322;18.582;2023-04-01T03:59:34;99111.40;;;5.00
69435;BMP180;56625;54.322;18.582;2023-04-01T04:02:02;99113.60;;;5.00
69435;BMP180;56625;54.322;18.582;2023-04-01T04:04:31;99112.40;;;5.00
69435;BMP180;56625;54.322;18.582;2023-04-01T04:06:59;99114.00;;;5.00
69435;BMP180;56625;54.322;18.582;2023-04-01T04:09:31;99117.00;;;5.00
69435;BMP180;56625;54.322;18.582;2023-04-01T04:12:00;99120.20;;;5.00
69435;BMP180;56625;54.322;18.582;2023-04-01T04:14:29;99118.40;;;4.98
69435;BMP180;56625;54.322;18.582;2023-04-01T04:16:58;99127.40;;;4.90
69435;BMP180;56625;54.322;18.582;2023-04-01T04:19:26;99127.20;;;4.98
69435;BMP180;56625;54.322;18.582;2023-04-01T04:21:54;99127.00;;;4.90
69435;BMP180;56625;54.322;18.582;2023-04-01T04:24:22;99128.80;;;4.90
69435;BMP180;56625;54.322;18.582;2023-04-01T04:26:50;99123.80;;;4.94
69435;BMP180;56625;54.322;18.582;2023-04-01T04:29:18;99124.40;;;4.96
69435;BMP180;56625;54.322;18.582;2023-04-01T04:31:46;99125.80;;;5.00
69435;BMP180;56625;54.322;18.582;2023-04-01T04:34:14;99127.40;;;4.98
69435;BMP180;56625;54.322;18.582;2023-04-01T04:36:42;99130.20;;;5.00
69435;BMP180;56625;54.322;18.582;2023-04-01T04:39:10;99126.40;;;5.00
69435;BMP180;56625;54.322;18.582;2023-04-01T04:41:38;99133.20;;;5.02
69435;BMP180;56625;54.322;18.582;2023-04-01T04:44:06;99132.60;;;5.00
69435;BMP180;56625;54.322;18.582;2023-04-01T04:46:35;99135.60;;;5.00
69435;BMP180;56625;54.322;18.582;2023-04-01T04:49:06;99136.20;;;5.06
69435;BMP180;56625;54.322;18.582;2023-04-01T04:51:34;99132.80;;;5.10
69435;BMP180;56625;54.322;18.582;2023-04-01T04:54:04;99137.20;;;5.10
69435;BMP180;56625;54.322;18.582;2023-04-01T04:56:32;99140.80;;;5.10
69435;BMP180;56625;54.322;18.582;2023-04-01T04:59:01;99141.80;;;5.10
69435;BMP180;56625;54.322;18.582;2023-04-01T05:01:28;99142.80;;;5.10
69435;BMP180;56625;54.322;18.582;2023-04-01T05:03:57;99137.20;;;5.12
69435;BMP180;56625;54.322;18.582;2023-04-01T05:06:25;99144.20;;;5.14
69435;BMP180;56625;54.322;18.582;2023-04-01T05:08:57;99143.80;;;5.20
69435;BMP180;56625;54.322;18.582;2023-04-01T05:11:25;99145.60;;;5.20
69435;BMP180;56625;54.322;18.582;2023-04-01T05:13:53;99151.40;;;5.20
69435;BMP180;56625;54.322;18.582;2023-04-01T05:16:21;99152.80;;;5.20
69435;BMP180;56625;54.322;18.582;2023-04-01T05:18:49;99148.80;;;5.20
69435;BMP180;56625;54.322;18.582;2023-04-01T05:21:17;99152.20;;;5.20
69435;BMP180;56625;54.322;18.582;2023-04-01T05:23:45;99158.00;;;5.20
69435;BMP180;56625;54.322;18.582;2023-04-01T05:26:14;99157.80;;;5.10
69435;BMP180;56625;54.322;18.582;2023-04-01T05:28:42;99161.20;;;5.10
69435;BMP180;56625;54.322;18.582;2023-04-01T05:31:10;99163.20;;;5.10
69435;BMP180;56625;54.322;18.582;2023-04-01T05:33:39;99166.40;;;5.10
69435;BMP180;56625;54.322;18.582;2023-04-01T05:36:13;99168.60;;;5.14
69435;BMP180;56625;54.322;18.582;2023-04-01T05:38:43;99168.60;;;5.14
69435;BMP180;56625;54.322;18.582;2023-04-01T05:41:14;99169.00;;;5.10
69435;BMP180;56625;54.322;18.582;2023-04-01T05:43:43;99164.60;;;5.10
69435;BMP180;56625;54.322;18.582;2023-04-01T05:46:11;99171.80;;;5.10
69435;BMP180;56625;54.322;18.582;2023-04-01T05:48:39;99168.40;;;5.06
69435;BMP180;56625;54.322;18.582;2023-04-01T05:51:13;99177.40;;;5.00
69435;BMP180;56625;54.322;18.582;2023-04-01T05:53:42;99182.60;;;4.96
69435;BMP180;56625;54.322;18.582;2023-04-01T05:56:10;99182.80;;;4.90
69435;BMP180;56625;54.322;18.582;2023-04-01T05:58:39;99182.40;;;4.86
69435;BMP180;56625;54.322;18.582;2023-04-01T06:01:10;99189.80;;;4.80
69435;BMP180;56625;54.322;18.582;2023-04-01T06:03:43;99194.20;;;4.76
69435;BMP180;56625;54.322;18.582;2023-04-01T06:06:23;99202.60;;;4.80
69435;BMP180;56625;54.322;18.582;2023-04-01T06:08:53;99201.60;;;4.80
69435;BMP180;56625;54.322;18.582;2023-04-01T06:14:54;99203.00;;;4.74
69435;BMP180;56625;54.322;18.582;2023-04-01T06:20:20;99213.00;;;4.80
69435;BMP180;56625;54.322;18.582;2023-04-01T06:23:10;99210.60;;;4.80
69435;BMP180;56625;54.322;18.582;2023-04-01T06:26:07;99209.40;;;4.80
69435;BMP180;56625;54.322;18.582;2023-04-01T06:29:14;99214.40;;;4.80
69435;BMP180;56625;54.322;18.582;2023-04-01T06:32:14;99223.60;;;4.70
69435;BMP180;56625;54.322;18.582;2023-04-01T06:44:38;99234.40;;;4.50
69435;BMP180;56625;54.322;18.582;2023-04-01T06:56:10;99250.20;;;4.40
69435;BMP180;56625;54.322;18.582;2023-04-01T06:58:53;99261.80;;;4.40
69435;BMP180;56625;54.322;18.582;2023-04-01T07:01:31;99264.60;;;4.40
69435;BMP180;56625;54.322;18.582;2023-04-01T07:04:11;99272.00;;;4.40
69435;BMP180;56625;54.322;18.582;2023-04-01T07:06:48;99271.60;;;4.44
69435;BMP180;56625;54.322;18.582;2023-04-01T07:09:28;99277.20;;;4.50
69435;BMP180;56625;54.322;18.582;2023-04-01T07:12:09;99283.60;;;4.50
69435;BMP180;56625;54.322;18.582;2023-04-01T07:14:41;99284.80;;;4.54
69435;BMP180;56625;54.322;18.582;2023-04-01T07:17:20;99285.00;;;4.60
69435;BMP180;56625;54.322;18.582;2023-04-01T07:20:29;99284.60;;;4.60
69435;BMP180;56625;54.322;18.582;2023-04-01T07:23:05;99294.00;;;4.60
69435;BMP180;56625;54.322;18.582;2023-04-01T07:25:40;99292.00;;;4.60
69435;BMP180;56625;54.322;18.582;2023-04-01T07:28:16;99299.60;;;4.60
69435;BMP180;56625;54.322;18.582;2023-04-01T07:30:56;99298.80;;;4.60
69435;BMP180;56625;54.322;18.582;2023-04-01T07:50:32;99308.40;;;4.70
69435;BMP180;56625;54.322;18.582;2023-04-01T07:53:39;99316.80;;;4.64
69435;BMP180;56625;54.322;18.582;2023-04-01T07:56:36;99313.80;;;4.68
69435;BMP180;56625;54.322;18.582;2023-04-01T08:02:10;99319.80;;;4.60
69435;BMP180;56625;54.322;18.582;2023-04-01T08:10:57;99328.80;;;4.50
69435;BMP180;56625;54.322;18.582;2023-04-01T08:16:23;99327.20;;;4.50
69435;BMP180;56625;54.322;18.582;2023-04-01T08:22:26;99339.60;;;4.50
69435;BMP180;56625;54.322;18.582;2023-04-01T08:24:58;99345.40;;;4.60
69435;BMP180;56625;54.322;18.582;2023-04-01T08:27:46;99349.80;;;4.60
69435;BMP180;56625;54.322;18.582;2023-04-01T08:30:21;99349.00;;;4.60
69435;BMP180;56625;54.322;18.582;2023-04-01T08:33:04;99350.60;;;4.60
69435;BMP180;56625;54.322;18.582;2023-04-01T08:35:42;99353.60;;;4.60
69435;BMP180;56625;54.322;18.582;2023-04-01T08:38:52;99354.20;;;4.58
69435;BMP180;56625;54.322;18.582;2023-04-01T08:48:05;99368.20;;;4.50
69435;BMP180;56625;54.322;18.582;2023-04-01T09:00:19;99378.00;;;4.40
69435;BMP180;56625;54.322;18.582;2023-04-01T09:03:19;99381.20;;;4.40
69435;BMP180;56625;54.322;18.582;2023-04-01T09:12:35;99401.40;;;4.38
69435;BMP180;56625;54.322;18.582;2023-04-01T09:15:50;99402.80;;;4.40
69435;BMP180;56625;54.322;18.582;2023-04-01T09:18:53;99402.40;;;4.40
69435;BMP180;56625;54.322;18.582;2023-04-01T09:27:29;99410.60;;;4.32
69435;BMP180;56625;54.322;18.582;2023-04-01T09:30:31;99417.20;;;4.40
69435;BMP180;56625;54.322;18.582;2023-04-01T09:33:17;99409.60;;;4.40
69435;BMP180;56625;54.322;18.582;2023-04-01T09:45:31;99427.20;;;4.44
69435;BMP180;56625;54.322;18.582;2023-04-01T09:48:12;99437.20;;;4.50
69435;BMP180;56625;54.322;18.582;2023-04-01T09:56:34;99438.40;;;4.50
69435;BMP180;56625;54.322;18.582;2023-04-01T10:14:10;99468.00;;;4.50
69435;BMP180;56625;54.322;18.582;2023-04-01T10:20:28;99472.20;;;4.30
69435;BMP180;56625;54.322;18.582;2023-04-01T10:23:22;99479.80;;;4.30
69435;BMP180;56625;54.322;18.582;2023-04-01T10:32:31;99489.20;;;4.20
69435;BMP180;56625;54.322;18.582;2023-04-01T10:50:52;99497.80;;;4.30
69435;BMP180;56625;54.322;18.582;2023-04-01T10:59:32;99509.00;;;4.40
69435;BMP180;56625;54.322;18.582;2023-04-01T11:05:23;99510.40;;;4.40
69435;BMP180;56625;54.322;18.582;2023-04-01T11:14:47;99520.80;;;4.20
69435;BMP180;56625;54.322;18.582;2023-04-01T11:17:50;99523.80;;;4.18
69435;BMP180;56625;54.322;18.582;2023-04-01T11:29:42;99542.20;;;4.10
69435;BMP180;56625;54.322;18.582;2023-04-01T11:35:48;99561.60;;;4.06
69435;BMP180;56625;54.322;18.582;2023-04-01T11:39:01;99551.60;;;4.00
69435;BMP180;56625;54.322;18.582;2023-04-01T11:41:52;99564.60;;;4.00
69435;BMP180;56625;54.322;18.582;2023-04-01T11:44:26;99553.20;;;4.00
69435;BMP180;56625;54.322;18.582;2023-04-01T11:53:18;99556.20;;;4.10
69435;BMP180;56625;54.322;18.582;2023-04-01T11:56:05;99556.80;;;4.10
69435;BMP180;56625;54.322;18.582;2023-04-01T12:02:01;99556.80;;;4.20
69435;BMP180;56625;54.322;18.582;2023-04-01T12:07:21;99565.40;;;4.18
69435;BMP180;56625;54.322;18.582;2023-04-01T12:10:18;99563.40;;;4.14
69435;BMP180;56625;54.322;18.582;2023-04-01T12:13:14;99572.00;;;4.10
69435;BMP180;56625;54.322;18.582;2023-04-01T12:16:06;99565.20;;;4.10
69435;BMP180;56625;54.322;18.582;2023-04-01T12:18:55;99570.60;;;4.20
69435;BMP180;56625;54.322;18.582;2023-04-01T12:27:15;99575.60;;;4.20
69435;BMP180;56625;54.322;18.582;2023-04-01T12:33:51;99591.00;;;4.22
69435;BMP180;56625;54.322;18.582;2023-04-01T12:36:35;99590.80;;;4.30
69435;BMP180;56625;54.322;18.582;2023-04-01T12:39:44;99579.60;;;4.20
69435;BMP180;56625;54.322;18.582;2023-04-01T13:03:21;99629.80;;;3.84
69435;BMP180;56625;54.322;18.582;2023-04-01T13:09:36;99639.60;;;3.80
69435;BMP180;56625;54.322;18.582;2023-04-01T13:12:29;99644.60;;;3.70
69435;BMP180;56625;54.322;18.582;2023-04-01T13:21:12;99670.60;;;3.80
69435;BMP180;56625;54.322;18.582;2023-04-01T13:24:21;99679.40;;;3.66
69435;BMP180;56625;54.322;18.582;2023-04-01T13:27:29;99670.00;;;3.52
69435;BMP180;56625;54.322;18.582;2023-04-01T13:41:51;99678.40;;;3.50
69435;BMP180;56625;54.322;18.582;2023-04-01T13:56:50;99698.20;;;3.50
69435;BMP180;56625;54.322;18.582;2023-04-01T14:05:51;99714.00;;;3.40
69435;BMP180;56625;54.322;18.582;2023-04-01T14:11:56;99720.40;;;3.40
69435;BMP180;56625;54.322;18.582;2023-04-01T14:32:28;99744.80;;;3.32
69435;BMP180;56625;54.322;18.582;2023-04-01T14:41:29;99748.00;;;3.30
69435;BMP180;56625;54.322;18.582;2023-04-01T14:44:44;99748.80;;;3.30
69435;BMP180;56625;54.322;18.582;2023-04-01T14:47:47;99746.00;;;3.30
69435;BMP180;56625;54.322;18.582;2023-04-01T14:50:23;99753.80;;;3.32
69435;BMP180;56625;54.322;18.582;2023-04-01T14:53:23;99755.20;;;3.40
69435;BMP180;56625;54.322;18.582;2023-04-01T14:56:00;99759.60;;;3.36
69435;BMP180;56625;54.322;18.582;2023-04-01T14:58:57;99761.00;;;3.40
69435;BMP180;56625;54.322;18.582;2023-04-01T15:01:42;99769.40;;;3.30
69435;BMP180;56625;54.322;18.582;2023-04-01T15:04:41;99776.80;;;3.34
69435;BMP180;56625;54.322;18.582;2023-04-01T15:16:13;99788.00;;;3.30
69435;BMP180;56625;54.322;18.582;2023-04-01T15:18:56;99789.00;;;3.30
69435;BMP180;56625;54.322;18.582;2023-04-01T15:28:11;99810.80;;;3.36
69435;BMP180;56625;54.322;18.582;2023-04-01T15:31:24;99814.00;;;3.30
69435;BMP180;56625;54.322;18.582;2023-04-01T15:35:03;99811.20;;;3.30
69435;BMP180;56625;54.322;18.582;2023-04-01T15:37:54;99829.80;;;3.30
69435;BMP180;56625;54.322;18.582;2023-04-01T15:40:46;99831.60;;;3.30
69435;BMP180;56625;54.322;18.582;2023-04-01T15:55:15;99852.60;;;3.30
69435;BMP180;56625;54.322;18.582;2023-04-01T16:00:55;99856.40;;;3.30
69435;BMP180;56625;54.322;18.582;2023-04-01T16:03:40;99853.60;;;3.30
69435;BMP180;56625;54.322;18.582;2023-04-01T16:12:35;99874.40;;;3.30
69435;BMP180;56625;54.322;18.582;2023-04-01T16:15:50;99874.20;;;3.30
69435;BMP180;56625;54.322;18.582;2023-04-01T16:19:12;99882.40;;;3.30
69435;BMP180;56625;54.322;18.582;2023-04-01T16:22:02;99888.00;;;3.30
69435;BMP180;56625;54.322;18.582;2023-04-01T16:24:51;99894.60;;;3.30
69435;BMP180;56625;54.322;18.582;2023-04-01T16:30:01;99898.00;;;3.30
69435;BMP180;56625;54.322;18.582;2023-04-01T16:32:54;99895.20;;;3.36
69435;BMP180;56625;54.322;18.582;2023-04-01T16:35:49;99905.40;;;3.40
69435;BMP180;56625;54.322;18.582;2023-04-01T16:38:50;99902.80;;;3.30
69435;BMP180;56625;54.322;18.582;2023-04-01T16:41:34;99909.00;;;3.30
69435;BMP180;56625;54.322;18.582;2023-04-01T16:44:23;99908.60;;;3.30
69435;BMP180;56625;54.322;18.582;2023-04-01T16:46:57;99912.60;;;3.30
69435;BMP180;56625;54.322;18.582;2023-04-01T16:53:30;99933.60;;;3.30
69435;BMP180;56625;54.322;18.582;2023-04-01T17:02:10;99949.60;;;3.30
69435;BMP180;56625;54.322;18.582;2023-04-01T17:07:41;99952.20;;;3.30
69435;BMP180;56625;54.322;18.582;2023-04-01T17:17:11;99965.40;;;3.22
69435;BMP180;56625;54.322;18.582;2023-04-01T17:20:28;99977.40;;;3.20
69435;BMP180;56625;54.322;18.582;2023-04-01T17:26:37;99986.40;;;3.20
69435;BMP180;56625;54.322;18.582;2023-04-01T17:30:02;99987.60;;;3.10
69435;BMP180;56625;54.322;18.582;2023-04-01T17:36:09;99998.60;;;3.16
69435;BMP180;56625;54.322;18.582;2023-04-01T17:38:54;100003.60;;;3.20
69435;BMP180;56625;54.322;18.582;2023-04-01T17:41:40;99997.60;;;3.20
69435;BMP180;56625;54.322;18.582;2023-04-01T17:47:31;100009.40;;;3.12
69435;BMP180;56625;54.322;18.582;2023-04-01T17:50:22;100016.60;;;3.16
69435;BMP180;56625;54.322;18.582;2023-04-01T17:56:07;100028.40;;;3.10
69435;BMP180;56625;54.322;18.582;2023-04-01T17:58:59;100028.80;;;3.10
69435;BMP180;56625;54.322;18.582;2023-04-01T18:05:11;100039.40;;;3.10
69435;BMP180;56625;54.322;18.582;2023-04-01T18:13:36;100047.60;;;3.16
69435;BMP180;56625;54.322;18.582;2023-04-01T18:22:47;100056.60;;;3.10
69435;BMP180;56625;54.322;18.582;2023-04-01T18:25:48;100061.80;;;3.20
69435;BMP180;56625;54.322;18.582;2023-04-01T18:31:07;100071.00;;;3.20
69435;BMP180;56625;54.322;18.582;2023-04-01T18:36:36;100071.80;;;3.20
69435;BMP180;56625;54.322;18.582;2023-04-01T18:39:18;100080.60;;;3.20
69435;BMP180;56625;54.322;18.582;2023-04-01T18:45:17;100087.80;;;3.20
69435;BMP180;56625;54.322;18.582;2023-04-01T18:51:10;100089.00;;;3.30
69435;BMP180;56625;54.322;18.582;2023-04-01T18:53:48;100091.80;;;3.30
69435;BMP180;56625;54.322;18.582;2023-04-01T18:56:31;100089.40;;;3.26
69435;BMP180;56625;54.322;18.582;2023-04-01T19:01:40;100088.60;;;3.30
69435;BMP180;56625;54.322;18.582;2023-04-01T19:04:23;100100.20;;;3.26
69435;BMP180;56625;54.322;18.582;2023-04-01T19:06:59;100111.00;;;3.28
69435;BMP180;56625;54.322;18.582;2023-04-01T19:09:47;100114.20;;;3.28
69435;BMP180;56625;54.322;18.582;2023-04-01T19:13:17;100117.60;;;3.24
69435;BMP180;56625;54.322;18.582;2023-04-01T19:16:09;100111.60;;;3.20
69435;BMP180;56625;54.322;18.582;2023-04-01T19:19:07;100121.00;;;3.22
69435;BMP180;56625;54.322;18.582;2023-04-01T19:21:48;100130.20;;;3.30
69435;BMP180;56625;54.322;18.582;2023-04-01T19:27:37;100131.40;;;3.30
69435;BMP180;56625;54.322;18.582;2023-04-01T19:30:22;100132.60;;;3.30
69435;BMP180;56625;54.322;18.582;2023-04-01T19:33:29;100137.40;;;3.30
69435;BMP180;56625;54.322;18.582;2023-04-01T19:36:43;100133.20;;;3.30
69435;BMP180;56625;54.322;18.582;2023-04-01T19:50:53;100145.40;;;3.30
69435;BMP180;56625;54.322;18.582;2023-04-01T19:56:24;100155.40;;;3.20
69435;BMP180;56625;54.322;18.582;2023-04-01T19:59:23;100158.00;;;3.20
69435;BMP180;56625;54.322;18.582;2023-04-01T20:04:53;100173.40;;;3.10
69435;BMP180;56625;54.322;18.582;2023-04-01T20:07:43;100173.80;;;3.10
69435;BMP180;56625;54.322;18.582;2023-04-01T20:10:23;100178.00;;;3.06
69435;BMP180;56625;54.322;18.582;2023-04-01T20:15:41;100183.40;;;3.00
69435;BMP180;56625;54.322;18.582;2023-04-01T20:18:23;100178.80;;;3.00
69435;BMP180;56625;54.322;18.582;2023-04-01T20:21:41;100193.40;;;3.00
69435;BMP180;56625;54.322;18.582;2023-04-01T20:26:46;100192.20;;;3.00
69435;BMP180;56625;54.322;18.582;2023-04-01T20:29:37;100191.20;;;3.00
69435;BMP180;56625;54.322;18.582;2023-04-01T20:32:30;100207.00;;;3.00
69435;BMP180;56625;54.322;18.582;2023-04-01T20:44:12;100198.40;;;2.90
69435;BMP180;56625;54.322;18.582;2023-04-01T20:55:14;100215.20;;;2.90
69435;BMP180;56625;54.322;18.582;2023-04-01T20:57:57;100216.20;;;2.90
69435;BMP180;56625;54.322;18.582;2023-04-01T21:06:48;100208.40;;;2.80
69435;BMP180;56625;54.322;18.582;2023-04-01T21:09:55;100219.00;;;2.80
69435;BMP180;56625;54.322;18.582;2023-04-01T21:12:49;100233.00;;;2.72
69435;BMP180;56625;54.322;18.582;2023-04-01T21:22:33;100244.60;;;2.60
69435;BMP180;56625;54.322;18.582;2023-04-01T21:25:40;100256.40;;;2.50
69435;BMP180;56625;54.322;18.582;2023-04-01T21:28:20;100254.00;;;2.50
69435;BMP180;56625;54.322;18.582;2023-04-01T21:37:33;100264.20;;;2.40
69435;BMP180;56625;54.322;18.582;2023-04-01T21:43:58;100275.00;;;2.50
69435;BMP180;56625;54.322;18.582;2023-04-01T21:46:57;100275.40;;;2.50
69435;BMP180;56625;54.322;18.582;2023-04-01T22:01:28;100281.40;;;2.70
69435;BMP180;56625;54.322;18.582;2023-04-01T22:04:47;100281.40;;;2.70
69435;BMP180;56625;54.322;18.582;2023-04-01T22:07:21;100286.40;;;2.70
69435;BMP180;56625;54.322;18.582;2023-04-01T22:10:21;100276.20;;;2.76
69435;BMP180;56625;54.322;18.582;2023-04-01T22:13:35;100285.40;;;2.80
69435;BMP180;56625;54.322;18.582;2023-04-01T22:16:37;100292.60;;;2.80
69435;BMP180;56625;54.322;18.582;2023-04-01T22:19:44;100290.40;;;2.80
69435;BMP180;56625;54.322;18.582;2023-04-01T22:25:50;100303.60;;;2.70
69435;BMP180;56625;54.322;18.582;2023-04-01T22:28:27;100304.20;;;2.70
69435;BMP180;56625;54.322;18.582;2023-04-01T22:31:02;100305.60;;;2.70
69435;BMP180;56625;54.322;18.582;2023-04-01T22:34:00;100315.40;;;2.68
69435;BMP180;56625;54.322;18.582;2023-04-01T22:36:58;100317.80;;;2.68
69435;BMP180;56625;54.322;18.582;2023-04-01T22:40:10;100320.80;;;2.60
69435;BMP180;56625;54.322;18.582;2023-04-01T22:42:48;100326.20;;;2.60
69435;BMP180;56625;54.322;18.582;2023-04-01T22:48:40;100329.80;;;2.60
69435;BMP180;56625;54.322;18.582;2023-04-01T22:51:22;100328.00;;;2.60
69435;BMP180;56625;54.322;18.582;2023-04-01T22:54:30;100335.60;;;2.58
69435;BMP180;56625;54.322;18.582;2023-04-01T22:57:08;100345.20;;;2.50
69435;BMP180;56625;54.322;18.582;2023-04-01T22:59:50;100346.20;;;2.40
69435;BMP180;56625;54.322;18.582;2023-04-01T23:02:37;100345.40;;;2.40
69435;BMP180;56625;54.322;18.582;2023-04-01T23:05:13;100347.80;;;2.30
69435;BMP180;56625;54.322;18.582;2023-04-01T23:10:56;100359.60;;;2.30
69435;BMP180;56625;54.322;18.582;2023-04-01T23:13:33;100362.00;;;2.28
69435;BMP180;56625;54.322;18.582;2023-04-01T23:16:02;100369.80;;;2.20
69435;BMP180;56625;54.322;18.582;2023-04-01T23:18:45;100367.80;;;2.24
69435;BMP180;56625;54.322;18.582;2023-04-01T23:21:35;100364.00;;;2.20
69435;BMP180;56625;54.322;18.582;2023-04-01T23:24:32;100375.00;;;2.24